sensor_id;sensor_type;location;lat;lon;timestamp;temperature;humidity
25046;DHT22;13044;49.304;12.840;2023-12-22T00:00:14;5.30;99.90
25046;DHT22;13044;49.304;12.840;2023-12-22T00:02:42;5.30;99.90
25046;DHT22;13044;49.304;12.840;2023-12-22T00:05:09;5.30;99.90
25046;DHT22;13044;49.304;12.840;2023-12-22T00:07:36;5.30;99.90
25046;DHT22;13044;49.304;12.840;2023-12-22T00:10:03;5.30;99.90
25046;DHT22;13044;49.304;12.840;2023-12-22T00:12:31;5.30;99.90
25046;DHT22;13044;49.304;12.840;2023-12-22T00:14:58;5.30;99.90
25046;DHT22;13044;49.304;12.840;2023-12-22T00:17:24;5.30;99.90
25046;DHT22;13044;49.304;12.840;2023-12-22T00:19:51;5.30;99.90
25046;DHT22;13044;49.304;12.840;2023-12-22T00:22:18;5.30;99.90
25046;DHT22;13044;49.304;12.840;2023-12-22T00:24:45;5.30;99.90
25046;DHT22;13044;49.304;12.840;2023-12-22T00:27:12;5.30;99.90
25046;DHT22;13044;49.304;12.840;2023-12-22T00:29:39;5.30;99.90
25046;DHT22;13044;49.304;12.840;2023-12-22T00:32:06;5.20;99.90
25046;DHT22;13044;49.304;12.840;2023-12-22T00:34:36;5.20;99.90
25046;DHT22;13044;49.304;12.840;2023-12-22T00:37:03;5.20;99.90
25046;DHT22;13044;49.304;12.840;2023-12-22T00:39:31;5.20;99.90
25046;DHT22;13044;49.304;12.840;2023-12-22T00:41:58;5.20;99.90
25046;DHT22;13044;49.304;12.840;2023-12-22T00:44:25;5.20;99.90
25046;DHT22;13044;49.304;12.840;2023-12-22T00:46:54;5.20;99.90
25046;DHT22;13044;49.304;12.840;2023-12-22T00:49:21;5.20;99.90
25046;DHT22;13044;49.304;12.840;2023-12-22T00:51:48;5.20;99.90
25046;DHT22;13044;49.304;12.840;2023-12-22T00:54:15;5.20;99.90
25046;DHT22;13044;49.304;12.840;2023-12-22T00:56:42;5.20;99.90
25046;DHT22;13044;49.304;12.840;2023-12-22T00:59:09;5.20;99.90
25046;DHT22;13044;49.304;12.840;2023-12-22T01:01:37;5.20;99.90
25046;DHT22;13044;49.304;12.840;2023-12-22T01:04:05;5.20;99.90
25046;DHT22;13044;49.304;12.840;2023-12-22T01:06:32;5.20;99.90
25046;DHT22;13044;49.304;12.840;2023-12-22T01:08:59;5.20;99.90
25046;DHT22;13044;49.304;12.840;2023-12-22T01:11:25;5.20;99.90
25046;DHT22;13044;49.304;12.840;2023-12-22T01:13:52;5.20;99.90
25046;DHT22;13044;49.304;12.840;2023-12-22T01:16:19;5.20;99.90
25046;DHT22;13044;49.304;12.840;2023-12-22T01:18:48;5.20;99.90
25046;DHT22;13044;49.304;12.840;2023-12-22T01:21:17;5.10;99.90
25046;DHT22;13044;49.304;12.840;2023-12-22T01:23:44;5.20;99.90
25046;DHT22;13044;49.304;12.840;2023-12-22T01:26:12;5.20;99.90
25046;DHT22;13044;49.304;12.840;2023-12-22T01:28:39;5.20;99.90
25046;DHT22;13044;49.304;12.840;2023-12-22T01:31:06;5.10;99.90
25046;DHT22;13044;49.304;12.840;2023-12-22T01:33:33;5.10;99.90
25046;DHT22;13044;49.304;12.840;2023-12-22T01:36:00;5.10;99.90
25046;DHT22;13044;49.304;12.840;2023-12-22T01:38:27;5.10;99.90
25046;DHT22;13044;49.304;12.840;2023-12-22T01:40:54;5.10;99.90
25046;DHT22;13044;49.304;12.840;2023-12-22T01:43:21;5.10;99.90
25046;DHT22;13044;49.304;12.840;2023-12-22T01:45:52;5.10;99.90
25046;DHT22;13044;49.304;12.840;2023-12-22T01:48:25;5.10;99.90
25046;DHT22;13044;49.304;12.840;2023-12-22T01:50:53;5.00;99.90
25046;DHT22;13044;49.304;12.840;2023-12-22T01:53:23;5.00;99.90
25046;DHT22;13044;49.304;12.840;2023-12-22T01:55:51;5.00;99.90
25046;DHT22;13044;49.304;12.840;2023-12-22T01:58:20;5.00;99.90
25046;DHT22;13044;49.304;12.840;2023-12-22T02:00:47;5.00;99.90
25046;DHT22;13044;49.304;12.840;2023-12-22T02:03:14;5.10;99.90
25046;DHT22;13044;49.304;12.840;2023-12-22T02:05:43;5.10;99.90
25046;DHT22;13044;49.304;12.840;2023-12-22T02:08:11;5.00;99.90
25046;DHT22;13044;49.304;12.840;2023-12-22T02:10:38;5.00;99.90
25046;DHT22;13044;49.304;12.840;2023-12-22T02:13:05;5.00;99.90
25046;DHT22;13044;49.304;12.840;2023-12-22T02:15:33;5.10;99.90
25046;DHT22;13044;49.304;12.840;2023-12-22T02:18:09;5.00;99.90
25046;DHT22;13044;49.304;12.840;2023-12-22T02:20:38;5.00;99.90
25046;DHT22;13044;49.304;12.840;2023-12-22T02:23:05;5.00;99.90
25046;DHT22;13044;49.304;12.840;2023-12-22T02:25:32;5.00;99.90
25046;DHT22;13044;49.304;12.840;2023-12-22T02:28:04;5.00;99.90
25046;DHT22;13044;49.304;12.840;2023-12-22T02:30:38;5.00;99.90
25046;DHT22;13044;49.304;12.840;2023-12-22T02:33:18;5.00;99.90
25046;DHT22;13044;49.304;12.840;2023-12-22T02:35:49;5.00;99.90
25046;DHT22;13044;49.304;12.840;2023-12-22T02:38:18;5.00;99.90
25046;DHT22;13044;49.304;12.840;2023-12-22T02:40:45;5.00;99.90
25046;DHT22;13044;49.304;12.840;2023-12-22T02:43:12;5.00;99.90
25046;DHT22;13044;49.304;12.840;2023-12-22T02:45:39;4.90;99.90
25046;DHT22;13044;49.304;12.840;2023-12-22T02:48:06;5.00;99.90
25046;DHT22;13044;49.304;12.840;2023-12-22T02:50:33;4.90;99.90
25046;DHT22;13044;49.304;12.840;2023-12-22T02:53:00;4.90;99.90
25046;DHT22;13044;49.304;12.840;2023-12-22T02:55:27;4.90;99.90
25046;DHT22;13044;49.304;12.840;2023-12-22T02:57:54;5.00;99.90
25046;DHT22;13044;49.304;12.840;2023-12-22T03:00:21;4.90;99.90
25046;DHT22;13044;49.304;12.840;2023-12-22T03:02:48;4.90;99.90
25046;DHT22;13044;49.304;12.840;2023-12-22T03:05:15;5.00;99.90
25046;DHT22;13044;49.304;12.840;2023-12-22T03:07:42;5.00;99.90
25046;DHT22;13044;49.304;12.840;2023-12-22T03:10:09;5.00;99.90
25046;DHT22;13044;49.304;12.840;2023-12-22T03:12:36;5.00;99.90
25046;DHT22;13044;49.304;12.840;2023-12-22T03:15:03;4.90;99.90
25046;DHT22;13044;49.304;12.840;2023-12-22T03:17:31;4.80;99.90
25046;DHT22;13044;49.304;12.840;2023-12-22T03:19:57;4.80;99.90
25046;DHT22;13044;49.304;12.840;2023-12-22T03:22:24;4.80;99.90
25046;DHT22;13044;49.304;12.840;2023-12-22T03:24:51;4.80;99.90
25046;DHT22;13044;49.304;12.840;2023-12-22T03:27:18;4.90;99.90
25046;DHT22;13044;49.304;12.840;2023-12-22T03:29:46;4.90;99.90
25046;DHT22;13044;49.304;12.840;2023-12-22T03:32:13;4.80;99.90
25046;DHT22;13044;49.304;12.840;2023-12-22T03:34:40;4.90;99.90
25046;DHT22;13044;49.304;12.840;2023-12-22T03:37:08;4.80;99.90
25046;DHT22;13044;49.304;12.840;2023-12-22T03:39:35;4.80;99.90
25046;DHT22;13044;49.304;12.840;2023-12-22T03:42:02;4.80;99.90
25046;DHT22;13044;49.304;12.840;2023-12-22T03:44:28;4.80;99.90
25046;DHT22;13044;49.304;12.840;2023-12-22T03:46:55;4.70;99.90
25046;DHT22;13044;49.304;12.840;2023-12-22T03:49:22;4.70;99.90
25046;DHT22;13044;49.304;12.840;2023-12-22T03:51:49;4.70;99.90
25046;DHT22;13044;49.304;12.840;2023-12-22T03:54:16;4.70;99.90
25046;DHT22;13044;49.304;12.840;2023-12-22T03:56:44;4.70;99.90
25046;DHT22;13044;49.304;12.840;2023-12-22T03:59:11;4.70;99.90
25046;DHT22;13044;49.304;12.840;2023-12-22T04:01:38;4.70;99.90
25046;DHT22;13044;49.304;12.840;2023-12-22T04:04:05;4.70;99.90
25046;DHT22;13044;49.304;12.840;2023-12-22T04:06:32;4.70;99.90
25046;DHT22;13044;49.304;12.840;2023-12-22T04:08:58;4.70;99.90
25046;DHT22;13044;49.304;12.840;2023-12-22T04:11:25;4.70;99.90
25046;DHT22;13044;49.304;12.840;2023-12-22T04:13:52;4.70;99.90
25046;DHT22;13044;49.304;12.840;2023-12-22T04:16:19;4.70;99.90
25046;DHT22;13044;49.304;12.840;2023-12-22T04:18:46;4.70;99.90
25046;DHT22;13044;49.304;12.840;2023-12-22T04:21:13;4.60;99.90
25046;DHT22;13044;49.304;12.840;2023-12-22T04:23:40;4.70;99.90
25046;DHT22;13044;49.304;12.840;2023-12-22T04:26:07;4.70;99.90
25046;DHT22;13044;49.304;12.840;2023-12-22T04:28:34;4.70;99.90
25046;DHT22;13044;49.304;12.840;2023-12-22T04:31:00;4.60;99.90
25046;DHT22;13044;49.304;12.840;2023-12-22T04:33:27;4.60;99.90
25046;DHT22;13044;49.304;12.840;2023-12-22T04:35:54;4.70;99.90
25046;DHT22;13044;49.304;12.840;2023-12-22T04:38:21;4.70;99.90
25046;DHT22;13044;49.304;12.840;2023-12-22T04:40:48;4.70;99.90
25046;DHT22;13044;49.304;12.840;2023-12-22T04:43:15;4.60;99.90
25046;DHT22;13044;49.304;12.840;2023-12-22T04:45:42;4.60;99.90
25046;DHT22;13044;49.304;12.840;2023-12-22T04:48:08;4.60;99.90
25046;DHT22;13044;49.304;12.840;2023-12-22T04:50:35;4.60;99.90
25046;DHT22;13044;49.304;12.840;2023-12-22T04:53:02;4.60;99.90
25046;DHT22;13044;49.304;12.840;2023-12-22T04:55:30;4.70;99.90
25046;DHT22;13044;49.304;12.840;2023-12-22T04:57:57;4.70;99.90
25046;DHT22;13044;49.304;12.840;2023-12-22T05:00:24;4.70;99.90
25046;DHT22;13044;49.304;12.840;2023-12-22T05:02:51;4.70;99.90
25046;DHT22;13044;49.304;12.840;2023-12-22T05:05:18;4.60;99.90
25046;DHT22;13044;49.304;12.840;2023-12-22T05:07:45;4.70;99.90
25046;DHT22;13044;49.304;12.840;2023-12-22T05:10:12;4.60;99.90
25046;DHT22;13044;49.304;12.840;2023-12-22T05:12:39;4.60;99.90
25046;DHT22;13044;49.304;12.840;2023-12-22T05:15:06;4.60;99.90
25046;DHT22;13044;49.304;12.840;2023-12-22T05:17:33;4.60;99.90
25046;DHT22;13044;49.304;12.840;2023-12-22T05:20:00;4.50;99.90
25046;DHT22;13044;49.304;12.840;2023-12-22T05:22:27;4.60;99.90
25046;DHT22;13044;49.304;12.840;2023-12-22T05:25:00;4.60;99.90
25046;DHT22;13044;49.304;12.840;2023-12-22T05:27:27;4.60;99.90
25046;DHT22;13044;49.304;12.840;2023-12-22T05:29:54;4.60;99.90
25046;DHT22;13044;49.304;12.840;2023-12-22T05:32:21;4.60;99.90
25046;DHT22;13044;49.304;12.840;2023-12-22T05:34:48;4.60;99.90
25046;DHT22;13044;49.304;12.840;2023-12-22T05:37:15;4.60;99.90
25046;DHT22;13044;49.304;12.840;2023-12-22T05:39:42;4.50;99.90
25046;DHT22;13044;49.304;12.840;2023-12-22T05:42:10;4.50;99.90
25046;DHT22;13044;49.304;12.840;2023-12-22T05:44:37;4.50;99.90
25046;DHT22;13044;49.304;12.840;2023-12-22T05:47:05;4.50;99.90
25046;DHT22;13044;49.304;12.840;2023-12-22T05:49:32;4.50;99.90
25046;DHT22;13044;49.304;12.840;2023-12-22T05:51:59;4.50;99.90
25046;DHT22;13044;49.304;12.840;2023-12-22T05:54:26;4.50;99.90
25046;DHT22;13044;49.304;12.840;2023-12-22T05:56:53;4.60;99.90
25046;DHT22;13044;49.304;12.840;2023-12-22T05:59:24;4.50;99.90
25046;DHT22;13044;49.304;12.840;2023-12-22T06:01:54;4.60;99.90
25046;DHT22;13044;49.304;12.840;2023-12-22T06:04:21;4.60;99.90
25046;DHT22;13044;49.304;12.840;2023-12-22T06:06:48;4.50;99.90
25046;DHT22;13044;49.304;12.840;2023-12-22T06:09:15;4.60;99.90
25046;DHT22;13044;49.304;12.840;2023-12-22T06:11:44;4.50;99.90
25046;DHT22;13044;49.304;12.840;2023-12-22T06:14:11;4.60;99.90
25046;DHT22;13044;49.304;12.840;2023-12-22T06:16:39;4.50;99.90
25046;DHT22;13044;49.304;12.840;2023-12-22T06:19:06;4.50;99.90
25046;DHT22;13044;49.304;12.840;2023-12-22T06:21:33;4.60;99.90
25046;DHT22;13044;49.304;12.840;2023-12-22T06:24:05;4.60;99.90
25046;DHT22;13044;49.304;12.840;2023-12-22T06:26:32;4.50;99.90
25046;DHT22;13044;49.304;12.840;2023-12-22T06:28:59;4.50;99.90
25046;DHT22;13044;49.304;12.840;2023-12-22T06:31:26;4.50;99.90
25046;DHT22;13044;49.304;12.840;2023-12-22T06:33:53;4.50;99.90
25046;DHT22;13044;49.304;12.840;2023-12-22T06:36:24;4.50;99.90
25046;DHT22;13044;49.304;12.840;2023-12-22T06:38:52;4.50;99.90
25046;DHT22;13044;49.304;12.840;2023-12-22T06:41:29;4.50;99.90
25046;DHT22;13044;49.304;12.840;2023-12-22T06:43:57;4.50;99.90
25046;DHT22;13044;49.304;12.840;2023-12-22T06:46:28;4.50;99.90
25046;DHT22;13044;49.304;12.840;2023-12-22T06:48:56;4.50;99.90
25046;DHT22;13044;49.304;12.840;2023-12-22T06:51:28;4.50;99.90
25046;DHT22;13044;49.304;12.840;2023-12-22T06:54:03;4.50;99.90
25046;DHT22;13044;49.304;12.840;2023-12-22T06:56:35;4.50;99.90
25046;DHT22;13044;49.304;12.840;2023-12-22T06:59:03;4.50;99.90
25046;DHT22;13044;49.304;12.840;2023-12-22T07:01:32;4.50;99.90
25046;DHT22;13044;49.304;12.840;2023-12-22T07:04:03;4.40;99.90
25046;DHT22;13044;49.304;12.840;2023-12-22T07:06:32;4.50;99.90
25046;DHT22;13044;49.304;12.840;2023-12-22T07:11:41;4.50;99.90
25046;DHT22;13044;49.304;12.840;2023-12-22T07:14:09;4.50;99.90
25046;DHT22;13044;49.304;12.840;2023-12-22T07:16:38;4.50;99.90
25046;DHT22;13044;49.304;12.840;2023-12-22T07:19:05;4.50;99.90
25046;DHT22;13044;49.304;12.840;2023-12-22T07:21:32;4.50;99.90
25046;DHT22;13044;49.304;12.840;2023-12-22T07:24:00;4.50;99.90
25046;DHT22;13044;49.304;12.840;2023-12-22T07:26:27;4.50;99.90
25046;DHT22;13044;49.304;12.840;2023-12-22T07:28:55;4.60;99.90
25046;DHT22;13044;49.304;12.840;2023-12-22T07:31:22;4.60;99.90
25046;DHT22;13044;49.304;12.840;2023-12-22T07:33:49;4.50;99.90
25046;DHT22;13044;49.304;12.840;2023-12-22T07:36:17;4.50;99.90
25046;DHT22;13044;49.304;12.840;2023-12-22T07:38:46;4.50;99.90
25046;DHT22;13044;49.304;12.840;2023-12-22T07:41:13;4.50;99.90
25046;DHT22;13044;49.304;12.840;2023-12-22T07:43:41;4.50;99.90
25046;DHT22;13044;49.304;12.840;2023-12-22T07:46:16;4.50;99.90
25046;DHT22;13044;49.304;12.840;2023-12-22T07:48:43;4.50;99.90
25046;DHT22;13044;49.304;12.840;2023-12-22T07:51:12;4.50;99.90
25046;DHT22;13044;49.304;12.840;2023-12-22T07:53:39;4.60;99.90
25046;DHT22;13044;49.304;12.840;2023-12-22T07:56:07;4.60;99.90
25046;DHT22;13044;49.304;12.840;2023-12-22T07:58:35;4.60;99.90
25046;DHT22;13044;49.304;12.840;2023-12-22T08:01:02;4.60;99.90
25046;DHT22;13044;49.304;12.840;2023-12-22T08:03:29;4.60;99.90
25046;DHT22;13044;49.304;12.840;2023-12-22T08:05:56;4.60;99.90
25046;DHT22;13044;49.304;12.840;2023-12-22T08:08:23;4.60;99.90
25046;DHT22;13044;49.304;12.840;2023-12-22T08:10:50;4.60;99.90
25046;DHT22;13044;49.304;12.840;2023-12-22T08:13:17;4.60;99.90
25046;DHT22;13044;49.304;12.840;2023-12-22T08:15:44;4.60;99.90
25046;DHT22;13044;49.304;12.840;2023-12-22T08:18:11;4.60;99.90
25046;DHT22;13044;49.304;12.840;2023-12-22T08:20:39;4.50;99.90
25046;DHT22;13044;49.304;12.840;2023-12-22T08:23:09;4.50;99.90
25046;DHT22;13044;49.304;12.840;2023-12-22T08:25:39;4.50;99.90
25046;DHT22;13044;49.304;12.840;2023-12-22T08:28:10;4.50;99.90
25046;DHT22;13044;49.304;12.840;2023-12-22T08:30:39;4.40;99.90
25046;DHT22;13044;49.304;12.840;2023-12-22T08:33:06;4.40;99.90
25046;DHT22;13044;49.304;12.840;2023-12-22T08:35:33;4.30;99.90
25046;DHT22;13044;49.304;12.840;2023-12-22T08:38:00;4.30;99.90
25046;DHT22;13044;49.304;12.840;2023-12-22T08:40:27;4.30;99.90
25046;DHT22;13044;49.304;12.840;2023-12-22T08:42:54;4.30;99.90
25046;DHT22;13044;49.304;12.840;2023-12-22T08:45:26;4.40;99.90
25046;DHT22;13044;49.304;12.840;2023-12-22T08:47:57;4.40;99.90
25046;DHT22;13044;49.304;12.840;2023-12-22T08:50:24;4.40;99.90
25046;DHT22;13044;49.304;12.840;2023-12-22T08:52:52;4.40;99.90
25046;DHT22;13044;49.304;12.840;2023-12-22T08:55:19;4.30;99.90
25046;DHT22;13044;49.304;12.840;2023-12-22T08:57:46;4.30;99.90
25046;DHT22;13044;49.304;12.840;2023-12-22T09:00:25;4.30;99.90
25046;DHT22;13044;49.304;12.840;2023-12-22T09:02:52;4.40;99.90
25046;DHT22;13044;49.304;12.840;2023-12-22T09:05:20;4.40;99.90
25046;DHT22;13044;49.304;12.840;2023-12-22T09:07:48;4.40;99.90
25046;DHT22;13044;49.304;12.840;2023-12-22T09:10:16;4.40;99.90
25046;DHT22;13044;49.304;12.840;2023-12-22T09:12:43;4.40;99.90
25046;DHT22;13044;49.304;12.840;2023-12-22T09:15:10;4.50;99.90
25046;DHT22;13044;49.304;12.840;2023-12-22T09:17:37;4.50;99.90
25046;DHT22;13044;49.304;12.840;2023-12-22T09:20:05;4.50;99.90
25046;DHT22;13044;49.304;12.840;2023-12-22T09:22:32;4.60;99.90
25046;DHT22;13044;49.304;12.840;2023-12-22T09:25:00;4.60;99.90
25046;DHT22;13044;49.304;12.840;2023-12-22T09:27:26;4.60;99.90
25046;DHT22;13044;49.304;12.840;2023-12-22T09:29:57;4.60;99.90
25046;DHT22;13044;49.304;12.840;2023-12-22T09:32:24;4.70;99.90
25046;DHT22;13044;49.304;12.840;2023-12-22T09:34:51;4.70;99.90
25046;DHT22;13044;49.304;12.840;2023-12-22T09:37:18;4.80;99.90
25046;DHT22;13044;49.304;12.840;2023-12-22T09:39:45;4.80;99.90
25046;DHT22;13044;49.304;12.840;2023-12-22T09:42:12;4.90;99.90
25046;DHT22;13044;49.304;12.840;2023-12-22T09:44:39;5.00;99.90
25046;DHT22;13044;49.304;12.840;2023-12-22T09:47:09;5.10;99.90
25046;DHT22;13044;49.304;12.840;2023-12-22T09:49:39;5.10;99.90
25046;DHT22;13044;49.304;12.840;2023-12-22T09:52:08;5.10;99.90
25046;DHT22;13044;49.304;12.840;2023-12-22T09:54:36;5.20;99.90
25046;DHT22;13044;49.304;12.840;2023-12-22T09:57:05;5.20;99.90
25046;DHT22;13044;49.304;12.840;2023-12-22T09:59:49;5.30;99.90
25046;DHT22;13044;49.304;12.840;2023-12-22T10:02:19;5.30;99.90
25046;DHT22;13044;49.304;12.840;2023-12-22T10:04:46;5.30;99.90
25046;DHT22;13044;49.304;12.840;2023-12-22T10:07:14;5.40;99.90
25046;DHT22;13044;49.304;12.840;2023-12-22T10:09:43;5.40;99.90
25046;DHT22;13044;49.304;12.840;2023-12-22T10:12:13;5.40;99.90
25046;DHT22;13044;49.304;12.840;2023-12-22T10:14:40;5.50;99.90
25046;DHT22;13044;49.304;12.840;2023-12-22T10:17:08;5.50;99.90
25046;DHT22;13044;49.304;12.840;2023-12-22T10:19:35;5.60;99.90
25046;DHT22;13044;49.304;12.840;2023-12-22T10:22:02;5.60;99.90
25046;DHT22;13044;49.304;12.840;2023-12-22T10:27:06;5.60;99.90
25046;DHT22;13044;49.304;12.840;2023-12-22T10:29:33;5.60;99.90
25046;DHT22;13044;49.304;12.840;2023-12-22T10:32:04;5.70;99.90
25046;DHT22;13044;49.304;12.840;2023-12-22T10:34:34;5.70;99.90
25046;DHT22;13044;49.304;12.840;2023-12-22T10:37:02;5.70;99.90
25046;DHT22;13044;49.304;12.840;2023-12-22T10:39:30;5.80;99.90
25046;DHT22;13044;49.304;12.840;2023-12-22T10:41:58;5.80;99.90
25046;DHT22;13044;49.304;12.840;2023-12-22T10:44:27;5.80;99.90
25046;DHT22;13044;49.304;12.840;2023-12-22T10:46:56;5.80;99.90
25046;DHT22;13044;49.304;12.840;2023-12-22T10:49:24;5.80;99.90
25046;DHT22;13044;49.304;12.840;2023-12-22T10:51:52;5.90;99.90
25046;DHT22;13044;49.304;12.840;2023-12-22T10:54:19;5.90;99.90
25046;DHT22;13044;49.304;12.840;2023-12-22T10:56:46;5.90;99.90
25046;DHT22;13044;49.304;12.840;2023-12-22T10:59:17;5.90;99.90
25046;DHT22;13044;49.304;12.840;2023-12-22T11:01:45;5.90;99.90
25046;DHT22;13044;49.304;12.840;2023-12-22T11:04:18;5.90;99.90
25046;DHT22;13044;49.304;12.840;2023-12-22T11:06:49;5.90;99.90
25046;DHT22;13044;49.304;12.840;2023-12-22T11:09:17;5.90;99.90
25046;DHT22;13044;49.304;12.840;2023-12-22T11:11:47;5.90;99.90
25046;DHT22;13044;49.304;12.840;2023-12-22T11:14:16;5.90;99.90
25046;DHT22;13044;49.304;12.840;2023-12-22T11:16:44;5.90;99.90
25046;DHT22;13044;49.304;12.840;2023-12-22T11:19:14;6.00;99.90
25046;DHT22;13044;49.304;12.840;2023-12-22T11:21:43;6.00;99.90
25046;DHT22;13044;49.304;12.840;2023-12-22T11:24:13;6.00;99.90
25046;DHT22;13044;49.304;12.840;2023-12-22T11:26:41;6.00;99.90
25046;DHT22;13044;49.304;12.840;2023-12-22T11:29:11;6.00;99.90
25046;DHT22;13044;49.304;12.840;2023-12-22T11:31:39;6.00;99.90
25046;DHT22;13044;49.304;12.840;2023-12-22T11:34:09;6.00;99.90
25046;DHT22;13044;49.304;12.840;2023-12-22T11:36:43;6.00;99.90
25046;DHT22;13044;49.304;12.840;2023-12-22T11:39:12;6.00;99.90
25046;DHT22;13044;49.304;12.840;2023-12-22T11:41:40;6.00;99.90
25046;DHT22;13044;49.304;12.840;2023-12-22T11:44:09;6.00;99.90
25046;DHT22;13044;49.304;12.840;2023-12-22T11:46:36;6.00;99.90
25046;DHT22;13044;49.304;12.840;2023-12-22T11:49:04;6.10;99.90
25046;DHT22;13044;49.304;12.840;2023-12-22T11:51:32;6.10;99.90
25046;DHT22;13044;49.304;12.840;2023-12-22T11:54:03;6.10;99.90
25046;DHT22;13044;49.304;12.840;2023-12-22T11:56:29;6.10;99.90
25046;DHT22;13044;49.304;12.840;2023-12-22T11:58:58;6.10;99.90
25046;DHT22;13044;49.304;12.840;2023-12-22T12:01:27;6.10;99.90
25046;DHT22;13044;49.304;12.840;2023-12-22T12:04:02;6.10;99.90
25046;DHT22;13044;49.304;12.840;2023-12-22T12:06:33;6.10;99.90
25046;DHT22;13044;49.304;12.840;2023-12-22T12:09:05;6.20;99.90
25046;DHT22;13044;49.304;12.840;2023-12-22T12:14:22;6.20;99.90
25046;DHT22;13044;49.304;12.840;2023-12-22T12:17:03;6.20;99.90
25046;DHT22;13044;49.304;12.840;2023-12-22T12:19:38;6.20;99.90
25046;DHT22;13044;49.304;12.840;2023-12-22T12:22:06;6.20;99.90
25046;DHT22;13044;49.304;12.840;2023-12-22T12:24:34;6.10;99.90
25046;DHT22;13044;49.304;12.840;2023-12-22T12:27:02;6.00;99.90
25046;DHT22;13044;49.304;12.840;2023-12-22T12:29:32;6.00;99.90
25046;DHT22;13044;49.304;12.840;2023-12-22T12:32:05;6.00;99.90
25046;DHT22;13044;49.304;12.840;2023-12-22T12:34:33;5.90;99.90
25046;DHT22;13044;49.304;12.840;2023-12-22T12:37:00;5.90;99.90
25046;DHT22;13044;49.304;12.840;2023-12-22T12:39:30;5.70;99.90
25046;DHT22;13044;49.304;12.840;2023-12-22T12:42:01;5.60;99.90
25046;DHT22;13044;49.304;12.840;2023-12-22T12:44:29;5.60;99.90
25046;DHT22;13044;49.304;12.840;2023-12-22T12:46:58;5.50;99.90
25046;DHT22;13044;49.304;12.840;2023-12-22T12:49:27;5.50;99.90
25046;DHT22;13044;49.304;12.840;2023-12-22T12:51:57;5.50;99.90
25046;DHT22;13044;49.304;12.840;2023-12-22T12:54:25;5.40;99.90
25046;DHT22;13044;49.304;12.840;2023-12-22T12:56:53;5.30;99.90
25046;DHT22;13044;49.304;12.840;2023-12-22T12:59:20;5.30;99.90
25046;DHT22;13044;49.304;12.840;2023-12-22T13:01:48;5.20;99.90
25046;DHT22;13044;49.304;12.840;2023-12-22T13:04:15;5.20;99.90
25046;DHT22;13044;49.304;12.840;2023-12-22T13:06:44;5.20;99.90
25046;DHT22;13044;49.304;12.840;2023-12-22T13:09:11;5.20;99.90
25046;DHT22;13044;49.304;12.840;2023-12-22T13:11:41;5.20;99.90
25046;DHT22;13044;49.304;12.840;2023-12-22T13:14:25;5.20;99.90
25046;DHT22;13044;49.304;12.840;2023-12-22T13:16:54;5.20;99.90
25046;DHT22;13044;49.304;12.840;2023-12-22T13:19:24;5.20;99.90
25046;DHT22;13044;49.304;12.840;2023-12-22T13:21:55;5.20;99.90
25046;DHT22;13044;49.304;12.840;2023-12-22T13:32:37;5.00;99.90
25046;DHT22;13044;49.304;12.840;2023-12-22T13:35:04;5.10;99.90
25046;DHT22;13044;49.304;12.840;2023-12-22T13:37:31;5.00;99.90
25046;DHT22;13044;49.304;12.840;2023-12-22T13:39:58;5.00;99.90
25046;DHT22;13044;49.304;12.840;2023-12-22T13:42:26;5.00;99.90
25046;DHT22;13044;49.304;12.840;2023-12-22T13:44:53;5.00;99.90
25046;DHT22;13044;49.304;12.840;2023-12-22T13:47:20;5.00;99.90
25046;DHT22;13044;49.304;12.840;2023-12-22T13:49:51;5.00;99.90
25046;DHT22;13044;49.304;12.840;2023-12-22T13:52:29;5.00;99.90
25046;DHT22;13044;49.304;12.840;2023-12-22T13:54:59;5.00;99.90
25046;DHT22;13044;49.304;12.840;2023-12-22T13:57:28;5.00;99.90
25046;DHT22;13044;49.304;12.840;2023-12-22T13:59:55;5.10;99.90
25046;DHT22;13044;49.304;12.840;2023-12-22T14:02:22;5.10;99.90
25046;DHT22;13044;49.304;12.840;2023-12-22T14:04:52;5.10;99.90
25046;DHT22;13044;49.304;12.840;2023-12-22T14:07:20;5.10;99.90
25046;DHT22;13044;49.304;12.840;2023-12-22T14:09:46;5.10;99.90
25046;DHT22;13044;49.304;12.840;2023-12-22T14:12:13;5.10;99.90
25046;DHT22;13044;49.304;12.840;2023-12-22T14:14:50;5.10;99.90
25046;DHT22;13044;49.304;12.840;2023-12-22T14:17:17;5.10;99.90
25046;DHT22;13044;49.304;12.840;2023-12-22T14:19:46;5.10;99.90
25046;DHT22;13044;49.304;12.840;2023-12-22T14:22:15;5.00;99.90
25046;DHT22;13044;49.304;12.840;2023-12-22T14:24:43;5.00;99.90
25046;DHT22;13044;49.304;12.840;2023-12-22T14:27:10;5.00;99.90
25046;DHT22;13044;49.304;12.840;2023-12-22T14:29:40;5.00;99.90
25046;DHT22;13044;49.304;12.840;2023-12-22T14:32:07;5.00;99.90
25046;DHT22;13044;49.304;12.840;2023-12-22T14:34:38;4.90;99.90
25046;DHT22;13044;49.304;12.840;2023-12-22T14:37:05;4.90;99.90
25046;DHT22;13044;49.304;12.840;2023-12-22T14:39:32;4.90;99.90
25046;DHT22;13044;49.304;12.840;2023-12-22T14:42:00;4.90;99.90
25046;DHT22;13044;49.304;12.840;2023-12-22T14:44:29;4.90;99.90
25046;DHT22;13044;49.304;12.840;2023-12-22T14:46:56;4.90;99.90
25046;DHT22;13044;49.304;12.840;2023-12-22T14:49:23;5.00;99.90
25046;DHT22;13044;49.304;12.840;2023-12-22T14:51:50;5.00;99.90
25046;DHT22;13044;49.304;12.840;2023-12-22T14:54:20;4.90;99.90
25046;DHT22;13044;49.304;12.840;2023-12-22T14:56:47;4.90;99.90
25046;DHT22;13044;49.304;12.840;2023-12-22T14:59:16;4.90;99.90
25046;DHT22;13044;49.304;12.840;2023-12-22T15:01:43;4.90;99.90
25046;DHT22;13044;49.304;12.840;2023-12-22T15:04:14;4.90;99.90
25046;DHT22;13044;49.304;12.840;2023-12-22T15:06:42;4.90;99.90
25046;DHT22;13044;49.304;12.840;2023-12-22T15:09:10;4.90;99.90
25046;DHT22;13044;49.304;12.840;2023-12-22T15:11:43;4.80;99.90
25046;DHT22;13044;49.304;12.840;2023-12-22T15:14:12;4.90;99.90
25046;DHT22;13044;49.304;12.840;2023-12-22T15:16:42;4.80;99.90
25046;DHT22;13044;49.304;12.840;2023-12-22T15:19:14;4.80;99.90
25046;DHT22;13044;49.304;12.840;2023-12-22T15:21:41;4.80;99.90
25046;DHT22;13044;49.304;12.840;2023-12-22T15:24:09;4.80;99.90
25046;DHT22;13044;49.304;12.840;2023-12-22T15:26:36;4.80;99.90
25046;DHT22;13044;49.304;12.840;2023-12-22T15:29:03;4.80;99.90
25046;DHT22;13044;49.304;12.840;2023-12-22T15:31:30;4.80;99.90
25046;DHT22;13044;49.304;12.840;2023-12-22T15:34:02;4.70;99.90
25046;DHT22;13044;49.304;12.840;2023-12-22T15:36:29;4.70;99.90
25046;DHT22;13044;49.304;12.840;2023-12-22T15:38:57;4.70;99.90
25046;DHT22;13044;49.304;12.840;2023-12-22T15:41:31;4.70;99.90
25046;DHT22;13044;49.304;12.840;2023-12-22T15:43:59;4.70;99.90
25046;DHT22;13044;49.304;12.840;2023-12-22T15:46:26;4.70;99.90
25046;DHT22;13044;49.304;12.840;2023-12-22T15:48:53;4.70;99.90
25046;DHT22;13044;49.304;12.840;2023-12-22T15:51:20;4.70;99.90